Station 41044 - NE ST MARTIN - 330 NM NE St Martin Is Image indicating link to RSS feed of recent meteorological observations for station 41044


Conditions at 41044 as of
(10:50 am AST)
1450 GMT on 09/01/2026:
     

Click on the graph icon in the table below to see a time series plot of the last five days of that observation.

5-day plot - Wind Direction Wind Direction (WDIR): E ( 80 deg true )
5-day plot - Wind Speed Wind Speed (WSPD): 9.7 kts
5-day plot - Wind Gust Wind Gust (GST): 11.7 kts
5-day plot - Wave Height Wave Height (WVHT): 3.3 ft
5-day plot - Dominant Wave Period Dominant Wave Period (DPD): 8 sec
5-day plot - Average Wave Period Average Period (APD): 4.8 sec
5-day plot - Mean Wave Direction Mean Wave Direction (MWD):ESE ( 109 deg true )
5-day plot - Atmospheric Pressure Atmospheric Pressure (PRES):30.04 in
5-day plot - Air Temperature Air Temperature (ATMP): 84.2 °F
5-day plot - Water Temperature Water Temperature (WTMP): 85.1 °F
5-day plot - Dew Point Dew Point (DEWP): 75.4 °F
5-day plot - Heat Index Heat Index (HEAT): 92.7 °F
5-day plot - Wind Speed at 10 Meters Wind Speed at 10 meters (WSPD10M): 9.7 kts
5-day plot - Wind Speed at 20 Meters Wind Speed at 20 meters (WSPD20M): 11.7 kts
5-day plot -  Wind Speed, Wind Gust and Atmospheric Pressure Combined plot of Wind Speed, Gust, and Air Pressure
Supplemental Measurements
Lowest 1-minute Pressure
Time (AST)Pressure
10:42 am30.04 in
Highest 1-minute Wind Speed
Time (AST)5-day plot - 1-Minute Wind Speed WSPD 5-day plot - 1-Minute Wind Direction WDIR
10:50 am 9.7 ktsENE ( 70 deg true )
Previous observations
TIME
(AST)
5-day plot - Wind Direction
WDIR
 
5-day plot - Wind Speed
WSPD
kts
5-day plot - Wind Gust
GST
kts
5-day plot - Wave Height
WVHT
ft
5-day plot - Dominant Wave Period
DPD
sec
5-day plot - Average Wave Period
APD
sec
5-day plot - Mean Wave Direction
MWD
 
5-day plot - Atmospheric Pressure
PRES
in
5-day plot - Pressure Tendency
PTDY
in
5-day plot - Air Temperature
ATMP
°F
5-day plot - Water Temperature
WTMP
°F
5-day plot - Dew Point
DEWP
°F
5-day plot - Salinity
SAL
psu
5-day plot - Visibility
VIS
nmi
5-day plot - Tide (above MLLW)
TIDE
ft
2026-09-01 10:40 am E 9.7 11.7----30.04- 84.0 85.1 75.2---
2026-09-01 10:30 am E 9.7 11.7----30.04- 84.0 85.1 75.6---
2026-09-01 10:20 am E 9.7 11.7 3.3 84.8ESE30.04- 84.0 84.9 75.7---
2026-09-01 10:10 am E 9.7 11.7 3.3-4.8ESE30.04- 83.8 84.9 75.7---
2026-09-01 10:00 amENE 9.7 11.7----30.04+0.02 83.8 84.9 75.9---
2026-09-01 09:50 amENE 9.7 11.7 3.3 84.8ESE30.04- 83.8 84.9 75.9---
2026-09-01 09:40 amENE 9.7 11.7 3.3-4.8ESE30.04- 83.7 84.9 75.7---
2026-09-01 09:30 amENE 9.7 11.7----30.04- 83.8 84.9 76.1---
2026-09-01 09:20 amENE 11.7 13.6 3.6 85.0ESE30.03- 83.7 84.9 75.9---
2026-09-01 09:10 amENE 11.7 13.6 3.6-5.0ESE30.03- 83.7 84.9 75.9---
2026-09-01 09:00 amENE 9.7 11.7----30.03+0.02 83.8 84.9 75.9---
2026-09-01 08:50 amENE 9.7 13.6 3.6-5.0 E30.05- 83.5 84.7 75.6---
2026-09-01 08:40 amENE 9.7 13.6 3.6-5.0 E30.03- 83.5 84.7 76.1---
2026-09-01 08:30 amENE 11.7 11.7----30.03- 83.7 84.7 76.3---
2026-09-01 08:20 amENE 9.7 13.6 3.3 75.1 E30.03- 83.7 84.7 75.9---
2026-09-01 08:10 amENE 9.7 11.7 3.3-5.1 E30.02- 83.7 84.7 76.1---
2026-09-01 08:00 amENE 9.7 11.7----30.02+0.01 83.5 84.7 75.9---
2026-09-01 07:50 amENE 9.7 11.7 3.3 85.2 E30.02- 83.7 84.7 76.3---
2026-09-01 07:40 amENE 9.7 11.7----30.02- 83.7 84.7 75.9---
2026-09-01 07:30 amENE 9.7 11.7----30.02- 83.7 84.7 76.1---
2026-09-01 07:20 amENE 9.7 11.7 3.3 85.2 E30.02- 83.5 84.7 75.6---
2026-09-01 07:10 amENE 9.7 11.7----30.02- 83.3 84.7 75.9---
2026-09-01 07:00 am E 7.8 9.7----30.02+0.02 83.3 84.7 76.1---
2026-09-01 06:50 am E 9.7 11.7 3.3 85.1 E30.02- 83.3 84.7 75.9---
2026-09-01 06:40 am E 9.7 11.7----30.02- 83.1 84.7 75.6---
2026-09-01 06:30 am E 11.7 13.6----30.01- 82.8 84.7 75.4---
2026-09-01 06:20 am E 9.7 13.6 3.3 85.2 E30.01- 83.3 84.7 75.9---
2026-09-01 06:10 amENE 9.7 11.7 3.3-5.2 E30.01- 83.3 84.7 75.7---
2026-09-01 06:00 amENE 9.7 11.7----30.01+0.01 83.1 84.7 75.6---
2026-09-01 05:50 amENE 9.7 11.7 3.3 85.1 E30.01- 83.1 84.7 75.6---
2026-09-01 05:40 amENE 9.7 11.7----30.01- 83.1 84.7 76.1---
2026-09-01 05:30 amENE 9.7 11.7----30.01- 83.1 84.7 75.9---
2026-09-01 05:20 amENE 9.7 11.7 3.3 75.1ESE30.01- 83.1 84.7 75.7---
2026-09-01 05:10 amENE 9.7 11.7----30.00- 83.1 84.7 75.9---
2026-09-01 05:00 amENE 9.7 11.7----30.01+0.00 83.1 84.7 76.1---
2026-09-01 04:50 amENE 9.7 11.7 3.3 85.2ESE30.01- 82.9 84.7 75.9---
2026-09-01 04:40 amENE 9.7 11.7 3.3-5.2ESE30.00- 82.9 84.7 75.9---
2026-09-01 04:30 amENE 9.7 11.7----30.00- 83.1 84.7 76.1---
2026-09-01 04:20 amENE 9.7 9.7 3.6 85.4ESE30.00- 83.1 84.7 75.9---
2026-09-01 04:10 amENE 9.7 11.7----30.00- 83.1 84.7 75.7---
2026-09-01 04:00 amENE 9.7 11.7----30.00-0.02 83.1 84.7 75.7---
2026-09-01 03:50 amENE 11.7 13.6 3.3 75.2 E30.00- 83.1 84.7 76.1---
2026-09-01 03:40 amENE 9.7 11.7 3.3-5.2 E30.00- 83.1 84.7 76.1---
2026-09-01 03:30 amENE 11.7 13.6----30.00- 83.1 84.7 76.1---
2026-09-01 03:20 amENE 11.7 13.6 3.6 85.3ESE30.00- 83.3 84.9 76.5---
2026-09-01 03:10 amENE 9.7 11.7 3.6-5.3ESE30.00- 82.9 84.9 76.3---
2026-09-01 03:00 amENE 7.8 11.7----30.00-0.04 82.8- 76.5---
2026-09-01 02:50 amENE 9.7 13.6 3.6 85.5 E30.00- 83.3- 76.5---
2026-09-01 02:40 amENE 9.7 11.7 3.6-5.5 E30.00- 83.1 84.9 76.3---
2026-09-01 02:30 amENE 9.7 11.7----30.00- 83.1 84.9 76.3---
2026-09-01 02:20 amENE 9.7 11.7 3.3 95.4ESE30.01- 83.3 84.9 76.5---
2026-09-01 02:10 amENE 9.7 11.7 3.3-5.4ESE30.00- 83.1 84.9 76.3---
2026-09-01 02:00 amENE 9.7 11.7----30.00-0.05 83.5- 76.6---
2026-09-01 01:50 amENE 9.7 11.7 3.3 85.3ESE30.01- 83.3 84.9 76.1---
2026-09-01 01:40 amENE 9.7 11.7----30.01- 83.5 84.9 76.3---
2026-09-01 01:30 amENE 9.7 11.7----30.01- 83.3 84.9 76.3---
2026-09-01 01:20 amENE 7.8 9.7 3.6 85.6 E30.01- 83.3 84.9 76.3---
2026-09-01 01:10 amENE 9.7 13.6 3.6-5.6 E30.02- 82.8 84.9 74.5---
2026-09-01 01:00 amENE 9.7 15.5----30.02-0.04 83.7 84.9 75.4---
2026-09-01 12:50 amENE 9.7 11.7 3.3 85.4 E30.03- 83.3 84.9 75.2---
2026-09-01 12:40 amENE 7.8 9.7 3.3-5.4 E30.03- 83.1 84.9 76.5---
2026-09-01 12:30 am NE 7.8 13.6----30.03- 83.5 84.9 76.1---
2026-09-01 12:20 am E 7.8 9.7 3.6 85.5 E30.04- 83.7 84.9 75.6---
2026-09-01 12:10 am E 9.7 9.7 3.6-5.5 E30.04- 83.7 84.9 75.6---
2026-09-01 12:00 am E 9.7 11.7----30.04-0.01 83.5 84.9 75.9---
2026-08-31 11:50 pm E 9.7 11.7 3.6 85.3ESE30.05- 83.7 85.1 76.3---
2026-08-31 11:40 pm E 9.7 11.7----30.05- 83.7 85.1 76.1---
2026-08-31 11:30 pm E 9.7 11.7----30.05- 83.7 85.1 76.3---
2026-08-31 11:20 pm E 9.7 11.7 3.9 75.6ESE30.05- 83.5 85.1 76.3---
2026-08-31 11:10 pmENE 7.8 9.7 3.9-5.6ESE30.06- 83.5 85.1 76.6---
2026-08-31 11:00 pmENE 7.8 7.8----30.06+0.01 83.5 85.1 76.5---
2026-08-31 10:50 pmENE 7.8 9.7 3.6 85.3 SE30.06- 84.0 85.1 75.9---
2026-08-31 10:40 pm E 7.8 11.7----30.06- 83.1 85.1 73.4---
2026-08-31 10:30 pmENE 11.7 13.6----30.06- 83.5 85.1 75.9---
2026-08-31 10:20 pmENE 9.7 11.7 3.6 85.4ESE30.05- 83.7 85.1 76.3---
2026-08-31 10:10 pmENE 9.7 11.7 3.6-5.4ESE30.05- 83.8 85.1 77.0---
2026-08-31 10:00 pmENE 9.7 11.7----30.06+0.03 83.7 85.3 76.6---
2026-08-31 09:50 pmENE 9.7 11.7 3.9 85.5 E30.06- 83.7 85.3 76.8---
2026-08-31 09:40 pmENE 9.7 9.7 3.9-5.5 E30.06- 83.7 85.3 76.8---
2026-08-31 09:30 pmENE 7.8 9.7----30.06- 83.7 85.3 76.3---
2026-08-31 09:20 pmENE 9.7 11.7 3.9 85.5ESE30.06- 83.7 85.3 76.1---
2026-08-31 09:10 pmENE 9.7 11.7 3.9-5.5ESE30.06- 83.7 85.3 75.9---
2026-08-31 09:00 pmENE 7.8 9.7----30.05+0.03 83.7 85.3 76.5---
2026-08-31 08:50 pmENE 9.7 11.7 3.9-5.5ESE30.08- 83.7 85.5 76.5---
2026-08-31 08:40 pmENE 9.7 11.7 3.9-5.5ESE30.05- 83.7- 76.5---
2026-08-31 08:30 pmENE 9.7 11.7----30.05- 83.7 85.5 76.6---
2026-08-31 08:20 pmENE 9.7 13.6 3.9 85.7ESE30.05- 83.7 85.5 76.8---
2026-08-31 08:10 pmENE 7.8 11.7 3.9-5.7ESE30.04- 83.8 85.5 77.0---
2026-08-31 08:00 pm NE 7.8 9.7----30.04+0.03 83.8 85.5 77.0---
2026-08-31 07:50 pmENE 7.8 9.7 3.9 75.4ESE30.04- 83.7 85.5 76.3---
2026-08-31 07:40 pm NE 7.8 9.7 3.9-5.4ESE30.04- 83.7 85.5 76.1---
2026-08-31 06:50 pmENE 9.7 11.7 3.6 85.2ESE30.03- 83.5 85.5 76.3---
2026-08-31 06:40 pmENE 7.8 9.7----30.03- 83.5 85.5 76.6---
2026-08-31 06:30 pmENE 7.8 9.7----30.02- 83.5 85.5 77.0---
2026-08-31 06:20 pmENE 7.8 9.7 3.9 95.5ESE30.03- 83.7 85.5 76.8---
2026-08-31 06:10 pmENE 9.7 11.7 3.9-5.5ESE30.03- 83.8 85.5 76.1---
2026-08-31 06:00 pm NE 9.7 11.7----30.02+0.01 83.5- 75.9---
2026-08-31 05:50 pmENE 9.7 13.6 4.3 85.5ESE30.02- 83.7 85.5 76.5---
2026-08-31 05:40 pm E 11.7 13.6----30.02- 83.5 85.5 76.3---
2026-08-31 05:30 pmENE 11.7 13.6----30.02- 84.0 85.5 77.0---
2026-08-31 05:20 pmENE 9.7 11.7 4.3 85.6ESE30.02- 84.2 85.5 76.5---
2026-08-31 05:10 pmENE 9.7 11.7----30.01- 84.0 85.5 76.3---
2026-08-31 05:00 pm NE 7.8 9.7----30.01-0.01 84.4 85.5 76.8---
2026-08-31 04:50 pmENE 7.8 11.7 3.9 95.6ESE30.01- 84.2 85.5 76.1---
2026-08-31 04:40 pmENE 9.7 9.7 3.9-5.6ESE30.01- 84.4 85.5 76.5---
2026-08-31 04:30 pmENE 9.7 11.7----30.01- 84.2 85.5 76.1---
2026-08-31 04:20 pmENE 9.7 11.7 4.3 95.7ESE30.01- 84.2 85.5 76.3---
2026-08-31 04:10 pmENE 9.7 9.7 4.3-5.7ESE30.01- 84.4 85.5 76.3---
2026-08-31 04:00 pmENE 9.7 11.7----30.01-0.03 84.2- 75.7---
2026-08-31 03:50 pmENE 9.7 11.7 3.9 85.6ESE30.01- 84.2 85.5 76.3---
2026-08-31 03:40 pmENE 7.8 9.7----30.01- 84.2 85.5 76.3---
2026-08-31 03:30 pmENE 7.8 9.7----30.01- 84.2 85.5 76.1---
2026-08-31 03:20 pmENE 9.7 11.7 4.3-5.6 E30.03- 84.4 85.5 76.1---
2026-08-31 03:10 pmENE 7.8 11.7----30.01- 84.0 85.5 75.9---
2026-08-31 03:00 pmENE 9.7 11.7----30.01-0.04 84.2- 76.6---
2026-08-31 02:50 pm E 7.8 11.7 4.3 85.6ESE30.01- 84.2 85.5 76.5---
2026-08-31 02:40 pmENE 7.8 11.7----30.01- 84.2 85.5 76.1---
2026-08-31 02:30 pm E 9.7 11.7----30.02- 84.4 85.5 76.3---
2026-08-31 02:20 pm E 9.7 9.7 3.9 85.6ESE30.02- 84.2 85.5 75.7---
2026-08-31 02:10 pm E 9.7 11.7 3.9-5.6ESE30.02- 84.2 85.3 75.7---
2026-08-31 02:00 pm E 9.7 11.7----30.03-0.02 84.2- 75.7---
2026-08-31 01:50 pm E 9.7 11.7 3.9 85.5ESE30.03- 84.2 85.3 75.7---
2026-08-31 01:40 pm E 9.7 11.7----30.03- 84.2 85.3 75.6---
2026-08-31 01:30 pm E 9.7 11.7----30.03- 84.2 85.5 75.7---
2026-08-31 01:20 pm E 9.7 11.7 3.9 95.5 E30.03- 84.2 85.3 75.2---
2026-08-31 01:10 pm E 9.7 11.7 3.9-5.5 E30.03- 84.2 85.3 75.2---
2026-08-31 01:00 pm E 9.7 11.7----30.03-0.02 84.0 85.3 75.6---
2026-08-31 12:50 pm E 9.7 11.7 3.9 95.6ESE30.03- 84.0 85.3 76.3---
2026-08-31 12:40 pm E 9.7 11.7 3.9-5.6ESE30.03- 84.0 85.3 76.5---
2026-08-31 12:30 pm E 9.7 11.7----30.03- 84.2 85.3 76.3---
2026-08-31 12:20 pm E 9.7 11.7 4.3 95.6 E30.04- 84.2 85.3 75.9---
2026-08-31 12:10 pm E 9.7 13.6 4.3-5.6 E30.04- 84.2 85.3 76.1---
2026-08-31 12:00 pm E 9.7 13.6----30.04+0.00 84.2 85.3 75.9---
2026-08-31 11:50 am E 11.7 13.6 4.3 95.5 E30.04- 84.2 85.3 75.0---
2026-08-31 11:40 amENE 11.7 11.7 4.3-5.5 E30.05- 84.0 85.3 75.4---
2026-08-31 11:30 amENE 9.7 11.7----30.05- 84.0 85.3 76.1---
2026-08-31 11:20 amENE 9.7 13.6 4.3 95.5ESE30.05- 84.2 85.3 76.3---
2026-08-31 11:10 am E 11.7 13.6 4.3-5.5ESE30.05- 84.2 85.3 76.1---
2026-08-31 11:00 am E 11.7 13.6----30.05+0.02 84.0 85.5 75.9---
2026-08-31 10:50 am E 9.7 13.6 3.9 85.5ESE30.05- 84.0 85.3 76.6---

Wave Summary
for 41044 as of (10:40 am AST)
1440 GMT on 09/01/2026:

These wave data are displayed in rounded times.

     

Click on the graph icon in the table below to see a time series plot of the last five days of that observation.

5-day plot - Significant Wave Height Significant Wave Height (WVHT): 3.3 ft
5-day plot - Swell Height Swell Height (SwH): 2.6 ft
5-day plot - Swell Period Swell Period (SwP): 7.7 sec
5-day plot - Swell Direction Swell Direction (SwD):ESE
5-day plot - Wind Wave Height Wind Wave Height (WWH): 1.6 ft
5-day plot - Wind Wave Period Wind Wave Period (WWP): 3.8 sec
5-day plot - Wind Wave Direction Wind Wave Direction (WWD):ENE
5-day plot - Wave Steepness Wave Steepness (STEEPNESS): AVERAGE
5-day plot - Average Wave Period Average Wave Period (APD): 4.8 sec
Previous observations
TIME
(AST)
5-day plot - Wave Height
WVHT
ft
5-day plot - Swell Height
SwH
ft
5-day plot - Swell Period
SwP
sec
5-day plot - Swell Direction
SwD
 
5-day plot - Wind Wave Height
WWH
ft
5-day plot - Wind Wave Period
WWP
sec
5-day plot - Wind Wave Direction
WWD
 
5-day plot - Wave Steepness
STEEPNESS
 
5-day plot - Average Wave Period
APD
sec
2026-09-01 10:10 am 3.3 2.6 8.3ESE 2.0 4.3 E SWELL 4.8
2026-09-01 09:40 am 3.3 2.6 7.7ESE 1.6 4.5 E AVERAGE 4.8
2026-09-01 09:10 am 3.6 2.6 8.3ESE 2.3 5.0 E SWELL 5.0
2026-09-01 08:40 am 3.6 3.0 7.7 E 2.0 4.2 E AVERAGE 5.0
2026-09-01 08:10 am 3.3 3.0 7.1 E 1.6 4.5 ENE AVERAGE 5.1
2026-09-01 07:40 am 3.3 3.0 7.7 E 1.6 3.4 E AVERAGE 5.2
2026-09-01 07:10 am 3.3 3.0 7.7 E 1.6 4.3 E AVERAGE 5.2
2026-09-01 06:40 am 3.3 3.0 7.7 E 1.6 4.3 E AVERAGE 5.1
2026-09-01 06:10 am 3.3 3.0 7.7 E 1.6 3.8 ENE AVERAGE 5.2
2026-09-01 05:40 am 3.3 3.0 7.7 E 1.6 3.7 ENE AVERAGE 5.1
2026-09-01 05:10 am 3.3 3.0 7.1ESE 1.6 4.3 E AVERAGE 5.1
2026-09-01 04:40 am 3.3 3.0 7.7ESE 1.6 4.3 E AVERAGE 5.2
2026-09-01 04:10 am 3.6 3.3 7.7ESE 1.6 4.5 ENE AVERAGE 5.4
2026-09-01 03:40 am 3.3 2.6 7.1 E 2.0 5.0 ENE AVERAGE 5.2
2026-09-01 03:10 am 3.6 3.0 8.3ESE 1.6 3.8 ENE SWELL 5.3
2026-09-01 02:40 am 3.6 3.3 8.3 E 1.6 3.3 NE AVERAGE 5.5
2026-09-01 02:10 am 3.3 3.0 9.1ESE 1.3 4.2 ENE SWELL 5.4
2026-09-01 01:40 am 3.3 3.0 8.3ESE 1.6 4.3 ENE SWELL 5.3
2026-09-01 01:10 am 3.6 3.3 8.3 E 1.6 4.2 ENE AVERAGE 5.6
2026-09-01 12:40 am 3.3 3.0 8.3 E 1.3 3.4 ENE SWELL 5.4
2026-09-01 12:10 am 3.6 3.3 7.7 E 1.3 3.8 ENE AVERAGE 5.5
2026-08-31 11:40 pm 3.6 3.3 7.7ESE 1.6 4.3 ENE AVERAGE 5.3
2026-08-31 11:10 pm 3.9 3.6 7.1ESE 1.3 4.0 ENE AVERAGE 5.6
2026-08-31 10:40 pm 3.6 3.3 8.3 SE 1.6 3.8 ENE AVERAGE 5.3
2026-08-31 10:10 pm 3.6 3.3 7.7ESE 1.6 4.5 E AVERAGE 5.4
2026-08-31 09:40 pm 3.9 3.6 8.3 E 1.6 3.7 E AVERAGE 5.5
2026-08-31 09:10 pm 3.9 3.6 8.3ESE 1.6 3.8 E AVERAGE 5.5
2026-08-31 08:40 pm 3.9 3.6 8.3ESE 1.6 4.0 E AVERAGE 5.5
2026-08-31 08:10 pm 3.9 3.6 7.7ESE 1.3 4.2 E AVERAGE 5.7
2026-08-31 07:40 pm 3.9 3.6 7.1ESE 1.3 3.8 ESE AVERAGE 5.4
2026-08-31 07:10 pm 3.9 3.9 8.3ESE 1.3 3.8 ENE AVERAGE 5.3
2026-08-31 06:40 pm 3.6 3.3 8.3ESE 1.6 3.8 ENE AVERAGE 5.2
2026-08-31 06:10 pm 3.9 3.6 9.1ESE 1.6 4.3 ESE SWELL 5.5
2026-08-31 05:40 pm 4.3 3.6 7.7ESE 2.0 4.5 ESE AVERAGE 5.5
2026-08-31 05:10 pm 4.3 3.9 8.3ESE 2.0 4.5 E AVERAGE 5.6
2026-08-31 04:40 pm 3.9 3.6 9.1ESE 1.6 4.2 ENE SWELL 5.6
2026-08-31 04:10 pm 4.3 3.9 9.1ESE 1.6 3.8 E SWELL 5.7
2026-08-31 03:40 pm 3.9 3.6 8.3ESE 1.6 3.8 ENE AVERAGE 5.6
2026-08-31 03:10 pm 4.3 3.9 9.1 E 1.6 3.8 E SWELL 5.6
2026-08-31 02:40 pm 4.3 3.9 8.3ESE 1.6 4.0 ENE AVERAGE 5.6
2026-08-31 02:10 pm 3.9 3.6 8.3ESE 1.6 4.3 ENE AVERAGE 5.6
2026-08-31 01:40 pm 3.9 3.6 7.7ESE 1.6 4.3 E AVERAGE 5.5
2026-08-31 01:10 pm 3.9 3.6 9.1 E 1.6 3.6 ENE SWELL 5.5
2026-08-31 12:40 pm 3.9 3.6 9.1ESE 2.0 4.5 ESE SWELL 5.6
2026-08-31 12:10 pm 4.3 3.9 9.1 E 1.6 4.0 E SWELL 5.6
2026-08-31 11:40 am 4.3 3.6 9.1 E 2.3 4.3 E SWELL 5.5
2026-08-31 11:10 am 4.3 3.6 9.1ESE 2.0 4.8 ESE SWELL 5.5

Plot icon Plot of wave energy versus frequency (and period)